createdAt,value
2023-01-20T00:00:27.731Z,4.92
2023-01-20T00:02:54.603Z,4.92
2023-01-20T00:05:21.470Z,4.92
2023-01-20T00:07:48.246Z,4.92
2023-01-20T00:10:15.098Z,4.90
2023-01-20T00:12:41.802Z,4.88
2023-01-20T00:15:10.415Z,4.85
2023-01-20T00:17:37.276Z,4.84
2023-01-20T00:20:04.723Z,4.84
2023-01-20T00:22:31.615Z,4.85
2023-01-20T00:24:58.381Z,4.86
2023-01-20T00:27:25.081Z,4.87
2023-01-20T00:29:51.740Z,4.92
2023-01-20T00:32:18.630Z,4.98
2023-01-20T00:34:46.096Z,5.02
2023-01-20T00:37:12.892Z,5.07
2023-01-20T00:39:39.649Z,5.10
2023-01-20T00:42:06.507Z,5.14
2023-01-20T00:44:33.358Z,5.16
2023-01-20T00:47:00.228Z,5.18
2023-01-20T00:49:27.288Z,5.20
2023-01-20T00:51:54.177Z,5.21
2023-01-20T00:54:21.188Z,5.22
2023-01-20T00:56:47.972Z,5.23
2023-01-20T00:59:14.664Z,5.26
2023-01-20T01:01:41.997Z,5.29
2023-01-20T01:04:09.405Z,5.31
2023-01-20T01:06:36.271Z,5.34
2023-01-20T01:09:03.057Z,5.36
2023-01-20T01:11:29.863Z,5.38
2023-01-20T01:13:57.585Z,5.38
2023-01-20T01:16:24.471Z,5.38
2023-01-20T01:18:53.816Z,5.36
2023-01-20T01:21:20.818Z,5.35
2023-01-20T01:23:48.198Z,5.33
2023-01-20T01:26:14.951Z,5.32
2023-01-20T01:28:42.373Z,5.31
2023-01-20T01:31:09.280Z,5.30
2023-01-20T01:33:36.363Z,5.29
2023-01-20T01:36:04.287Z,5.27
2023-01-20T01:38:31.294Z,5.25
2023-01-20T01:40:58.176Z,5.24
2023-01-20T01:43:26.103Z,5.23
2023-01-20T01:45:53.193Z,5.21
2023-01-20T01:48:22.586Z,5.17
2023-01-20T01:51:03.450Z,5.14
2023-01-20T01:53:30.362Z,5.11
2023-01-20T01:55:59.691Z,5.08
2023-01-20T01:58:28.578Z,5.05
2023-01-20T02:00:55.405Z,5.01
2023-01-20T02:03:22.351Z,4.97
2023-01-20T02:05:49.675Z,4.92
2023-01-20T02:08:17.065Z,4.89
2023-01-20T02:10:43.901Z,4.86
2023-01-20T02:13:10.701Z,4.82
2023-01-20T02:16:12.745Z,4.80
2023-01-20T02:18:54.844Z,4.76
2023-01-20T02:21:48.831Z,4.74
2023-01-20T02:24:27.933Z,4.71
2023-01-20T02:27:15.381Z,4.68
2023-01-20T02:30:10.537Z,4.65
2023-01-20T02:32:39.010Z,4.62
2023-01-20T02:35:15.064Z,4.59
2023-01-20T02:37:50.082Z,4.57
2023-01-20T02:40:32.367Z,4.54
2023-01-20T02:43:21.257Z,4.51
2023-01-20T02:45:50.671Z,4.47
2023-01-20T02:48:34.200Z,4.44
2023-01-20T02:51:20.440Z,4.41
2023-01-20T02:53:49.679Z,4.38
2023-01-20T02:56:16.594Z,4.35
2023-01-20T02:58:47.983Z,4.33
2023-01-20T03:01:21.119Z,4.31
2023-01-20T03:03:48.096Z,4.28
2023-01-20T03:06:18.828Z,4.27
2023-01-20T03:08:45.589Z,4.26
2023-01-20T03:11:12.808Z,4.25
2023-01-20T03:13:50.790Z,4.25
2023-01-20T03:16:19.542Z,4.24
2023-01-20T03:18:46.544Z,4.21
2023-01-20T03:21:13.401Z,4.19
2023-01-20T03:23:42.843Z,4.18
2023-01-20T03:26:11.263Z,4.17
2023-01-20T03:28:38.127Z,4.17
2023-01-20T03:31:13.712Z,4.15
2023-01-20T03:33:40.601Z,4.14
2023-01-20T03:36:08.093Z,4.14
2023-01-20T03:38:34.891Z,4.13
2023-01-20T03:41:19.348Z,4.11
2023-01-20T03:43:55.602Z,4.10
2023-01-20T03:46:40.275Z,4.08
2023-01-20T03:49:15.822Z,4.06
2023-01-20T03:52:09.289Z,4.05
2023-01-20T03:54:45.395Z,4.05
2023-01-20T03:57:18.235Z,4.06
2023-01-20T03:59:45.078Z,4.06
2023-01-20T04:02:11.967Z,4.06
2023-01-20T04:04:40.417Z,4.05
2023-01-20T04:07:09.803Z,4.04
2023-01-20T04:09:39.594Z,4.03
2023-01-20T04:12:06.562Z,4.02
2023-01-20T04:14:35.867Z,4.02
2023-01-20T04:17:03.709Z,4.00
2023-01-20T04:19:30.502Z,3.99
2023-01-20T04:22:06.639Z,3.98
2023-01-20T04:24:34.934Z,3.97
2023-01-20T04:27:01.656Z,3.96
2023-01-20T04:29:28.441Z,3.95
2023-01-20T04:32:02.105Z,3.94
2023-01-20T04:34:28.923Z,3.93
2023-01-20T04:36:55.728Z,3.92
2023-01-20T04:39:22.592Z,3.90
2023-01-20T04:41:49.370Z,3.88
2023-01-20T04:44:16.135Z,3.88
2023-01-20T04:46:42.954Z,3.86
2023-01-20T04:49:11.304Z,3.85
2023-01-20T04:51:38.110Z,3.85
2023-01-20T04:54:04.951Z,3.85
2023-01-20T04:56:31.872Z,3.86
2023-01-20T04:58:59.217Z,3.86
2023-01-20T05:01:26.001Z,3.86
2023-01-20T05:03:52.923Z,3.86
2023-01-20T05:06:19.852Z,3.85
2023-01-20T05:08:46.627Z,3.83
2023-01-20T05:11:13.418Z,3.82
2023-01-20T05:13:40.506Z,3.80
2023-01-20T05:16:08.178Z,3.79
2023-01-20T05:18:35.543Z,3.77
2023-01-20T05:21:03.871Z,3.76
2023-01-20T05:23:30.696Z,3.74
2023-01-20T05:25:57.499Z,3.72
2023-01-20T05:28:24.508Z,3.71
2023-01-20T05:30:52.089Z,3.69
2023-01-20T05:33:18.923Z,3.68
2023-01-20T05:35:45.630Z,3.67
2023-01-20T05:38:12.483Z,3.65
2023-01-20T05:40:39.247Z,3.64
2023-01-20T05:43:05.980Z,3.62
2023-01-20T05:45:33.171Z,3.60
2023-01-20T05:48:00.133Z,3.57
2023-01-20T05:50:28.042Z,3.56
2023-01-20T05:52:54.806Z,3.55
2023-01-20T05:55:21.759Z,3.55
2023-01-20T05:57:48.508Z,3.54
2023-01-20T06:00:15.510Z,3.54
2023-01-20T06:02:42.353Z,3.53
2023-01-20T06:05:09.530Z,3.54
2023-01-20T06:07:36.368Z,3.54
2023-01-20T06:10:03.430Z,3.55
2023-01-20T06:12:30.148Z,3.56
2023-01-20T06:14:56.899Z,3.56
2023-01-20T06:17:23.938Z,3.57
2023-01-20T06:19:50.743Z,3.57
2023-01-20T06:22:19.776Z,3.57
2023-01-20T06:24:47.025Z,3.59
2023-01-20T06:27:13.924Z,3.60
2023-01-20T06:29:40.640Z,3.59
2023-01-20T06:32:07.358Z,3.60
2023-01-20T06:34:34.147Z,3.62
2023-01-20T06:37:02.234Z,3.62
2023-01-20T06:39:29.031Z,3.63
2023-01-20T06:41:59.742Z,3.64
2023-01-20T06:44:26.991Z,3.63
2023-01-20T06:46:54.817Z,3.61
2023-01-20T06:49:22.224Z,3.60
2023-01-20T06:51:49.690Z,3.59
2023-01-20T06:54:16.721Z,3.58
2023-01-20T06:56:43.677Z,3.56
2023-01-20T06:59:11.334Z,3.52
2023-01-20T07:01:38.462Z,3.48
2023-01-20T07:04:05.638Z,3.44
2023-01-20T07:06:38.621Z,3.41
2023-01-20T07:09:06.910Z,3.36
2023-01-20T07:11:35.325Z,3.34
2023-01-20T07:14:03.134Z,3.32
2023-01-20T07:16:30.031Z,3.30
2023-01-20T07:18:57.067Z,3.30
2023-01-20T07:21:26.242Z,3.30
2023-01-20T07:23:53.430Z,3.29
2023-01-20T07:26:21.877Z,3.28
2023-01-20T07:28:48.755Z,3.28
2023-01-20T07:31:19.384Z,3.28
2023-01-20T07:33:46.286Z,3.28
2023-01-20T07:36:14.214Z,3.28
2023-01-20T07:38:40.995Z,3.30
2023-01-20T07:41:16.480Z,3.32
2023-01-20T07:43:46.785Z,3.35
2023-01-20T07:46:13.789Z,3.38
2023-01-20T07:48:40.670Z,3.40
2023-01-20T07:51:09.520Z,3.43
2023-01-20T07:53:40.751Z,3.46
2023-01-20T07:56:10.338Z,3.49
2023-01-20T07:58:37.226Z,3.53
2023-01-20T08:01:15.347Z,3.57
2023-01-20T08:03:43.118Z,3.62
2023-01-20T09:31:00.848Z,5.36
2023-01-20T09:33:28.332Z,5.43
2023-01-20T09:35:55.883Z,5.50
2023-01-20T09:38:42.396Z,5.56
2023-01-20T09:41:27.615Z,5.63
2023-01-20T09:44:09.405Z,5.71
2023-01-20T09:47:18.773Z,5.78
2023-01-20T09:50:20.629Z,5.85
2023-01-20T09:53:06.018Z,5.92
2023-01-20T09:55:46.798Z,5.98
2023-01-20T09:58:16.067Z,6.03
2023-01-20T10:00:47.115Z,6.07
2023-01-20T10:03:16.216Z,6.11
2023-01-20T10:05:43.036Z,6.13
2023-01-20T10:08:31.147Z,6.16
2023-01-20T10:11:05.698Z,6.18
2023-01-20T10:13:36.060Z,6.22
2023-01-20T10:16:06.170Z,6.27
2023-01-20T10:18:50.719Z,6.33
2023-01-20T10:21:25.454Z,6.39
2023-01-20T10:24:16.656Z,6.43
2023-01-20T10:26:48.766Z,6.47
2023-01-20T10:29:28.570Z,6.51
2023-01-20T10:32:00.639Z,6.56
2023-01-20T10:34:29.118Z,6.60
2023-01-20T10:37:02.719Z,6.61
2023-01-20T10:39:34.787Z,6.61
2023-01-20T10:42:04.698Z,6.63
2023-01-20T10:44:35.656Z,6.66
2023-01-20T10:47:14.580Z,6.69
2023-01-20T10:49:42.539Z,6.70
2023-01-20T10:52:57.726Z,6.70
2023-01-20T10:55:59.990Z,6.73
2023-01-20T10:58:28.162Z,6.75
2023-01-20T11:00:55.522Z,6.77
2023-01-20T11:03:22.756Z,6.79
2023-01-20T11:05:50.567Z,6.81
2023-01-20T11:08:28.281Z,6.83
2023-01-20T11:11:00.193Z,6.86
2023-01-20T11:13:27.779Z,6.91
2023-01-20T11:15:56.959Z,6.95
2023-01-20T11:18:27.221Z,6.99
2023-01-20T11:21:00.840Z,7.01
2023-01-20T11:23:37.997Z,7.03
2023-01-20T11:26:10.658Z,7.06
2023-01-20T11:28:47.419Z,7.08
2023-01-20T11:31:15.525Z,7.10
2023-01-20T11:33:59.681Z,7.12
2023-01-20T11:36:27.036Z,7.13
2023-01-20T11:38:55.277Z,7.15
2023-01-20T11:41:26.666Z,7.17
2023-01-20T11:43:55.820Z,7.19
2023-01-20T11:46:33.363Z,7.21
2023-01-20T11:49:19.242Z,7.25
2023-01-20T11:51:49.115Z,7.30
2023-01-20T11:54:18.621Z,7.36
2023-01-20T11:56:46.405Z,7.40
2023-01-20T11:59:31.178Z,7.41
2023-01-20T12:02:03.883Z,7.39
2023-01-20T12:04:55.994Z,7.36
2023-01-20T12:07:31.943Z,7.30
2023-01-20T12:10:05.529Z,7.25
2023-01-20T12:12:38.106Z,7.21
2023-01-20T12:15:12.349Z,7.19
2023-01-20T12:17:48.283Z,7.19
2023-01-20T12:20:54.027Z,7.16
2023-01-20T12:23:57.547Z,7.09
2023-01-20T12:26:24.546Z,7.00
2023-01-20T12:29:24.100Z,6.96
2023-01-20T12:31:51.397Z,6.90
2023-01-20T12:34:23.929Z,6.86
2023-01-20T12:37:13.620Z,6.82
2023-01-20T12:39:42.203Z,6.77
2023-01-20T12:42:20.204Z,6.72
2023-01-20T12:44:59.569Z,6.68
2023-01-20T12:47:46.240Z,6.63
2023-01-20T12:50:33.876Z,6.57
2023-01-20T12:53:38.758Z,6.52
2023-01-20T12:56:15.820Z,6.47
2023-01-20T12:59:07.822Z,6.41
2023-01-20T13:02:18.300Z,6.35
2023-01-20T13:05:04.176Z,6.30
2023-01-20T13:07:57.429Z,6.27
2023-01-20T13:10:51.033Z,6.22
2023-01-20T13:13:51.654Z,6.19
2023-01-20T13:16:51.459Z,6.17
2023-01-20T13:19:37.283Z,6.15
2023-01-20T13:22:20.512Z,6.12
2023-01-20T13:24:50.075Z,6.10
2023-01-20T13:27:25.942Z,6.08
2023-01-20T13:30:00.191Z,6.04
2023-01-20T13:32:29.837Z,6.02
2023-01-20T13:34:56.713Z,5.99
2023-01-20T13:37:25.795Z,5.97
2023-01-20T13:39:54.003Z,5.94
2023-01-20T13:42:27.408Z,5.90
2023-01-20T13:45:12.698Z,5.87
2023-01-20T13:47:59.727Z,5.82
2023-01-20T13:50:33.992Z,5.77
2023-01-20T13:53:10.158Z,5.71
2023-01-20T13:55:45.413Z,5.64
2023-01-20T13:58:19.456Z,5.57
2023-01-20T14:00:48.499Z,5.51
2023-01-20T14:03:18.417Z,5.44
2023-01-20T14:05:55.072Z,5.38
2023-01-20T14:08:23.364Z,5.31
2023-01-20T14:10:50.100Z,5.24
2023-01-20T14:13:22.275Z,5.19
2023-01-20T14:15:51.308Z,5.13
2023-01-20T14:18:24.591Z,5.07
2023-01-20T14:21:01.693Z,4.99
2023-01-20T14:23:30.059Z,4.91
2023-01-20T14:26:11.003Z,4.84
2023-01-20T14:28:53.410Z,4.77
2023-01-20T14:31:21.267Z,4.68
2023-01-20T14:33:52.285Z,4.61
2023-01-20T14:36:20.355Z,4.57
2023-01-20T14:38:58.617Z,4.53
2023-01-20T14:41:28.185Z,4.48
2023-01-20T14:43:55.260Z,4.43
2023-01-20T14:46:23.314Z,4.37
2023-01-20T14:48:50.850Z,4.32
2023-01-20T14:51:18.320Z,4.26
2023-01-20T14:53:46.136Z,4.22
2023-01-20T14:56:21.015Z,4.18
2023-01-20T14:58:48.605Z,4.12
2023-01-20T15:01:23.414Z,4.08
2023-01-20T15:03:57.719Z,4.04
2023-01-20T15:06:25.257Z,3.99
2023-01-20T15:09:06.069Z,3.96
2023-01-20T15:11:35.086Z,3.92
2023-01-20T15:14:01.636Z,3.88
2023-01-20T15:16:35.458Z,3.83
2023-01-20T15:19:22.155Z,3.80
2023-01-20T15:21:55.833Z,3.74
2023-01-20T15:24:30.742Z,3.71
2023-01-20T15:27:00.855Z,3.67
2023-01-20T15:29:34.956Z,3.63
2023-01-20T15:32:05.811Z,3.60
2023-01-20T15:34:32.799Z,3.58
2023-01-20T15:36:59.296Z,3.56
2023-01-20T15:39:29.948Z,3.52
2023-01-20T15:41:57.080Z,3.48
2023-01-20T15:44:24.705Z,3.45
2023-01-20T15:46:51.733Z,3.42
2023-01-20T15:49:18.603Z,3.37
2023-01-20T15:51:45.658Z,3.34
2023-01-20T15:54:13.204Z,3.32
2023-01-20T15:56:40.744Z,3.29
2023-01-20T15:59:15.734Z,3.26
2023-01-20T16:01:46.548Z,3.24
2023-01-20T16:04:13.174Z,3.22
2023-01-20T16:06:39.797Z,3.20
2023-01-20T16:09:22.275Z,3.16
2023-01-20T16:11:48.795Z,3.14
2023-01-20T16:14:16.170Z,3.11
2023-01-20T16:16:43.011Z,3.08
2023-01-20T16:19:14.066Z,3.05
2023-01-20T16:21:44.323Z,3.02
2023-01-20T16:24:12.348Z,3.00
2023-01-20T16:26:39.028Z,2.98
2023-01-20T16:29:05.829Z,2.95
2023-01-20T16:31:32.798Z,2.94
2023-01-20T16:41:40.677Z,2.87
2023-01-20T16:44:08.869Z,2.84
2023-01-20T16:46:35.654Z,2.83
2023-01-20T16:49:03.593Z,2.82
2023-01-20T16:51:30.886Z,2.81
2023-01-20T16:53:57.739Z,2.80
2023-01-20T16:56:26.203Z,2.77
2023-01-20T16:58:53.749Z,2.75
2023-01-20T17:01:23.664Z,2.74
2023-01-20T17:03:51.701Z,2.71
2023-01-20T17:06:19.924Z,2.69
2023-01-20T17:08:47.697Z,2.67
2023-01-20T17:11:21.735Z,2.64
2023-01-20T17:13:48.951Z,2.61
2023-01-20T17:16:15.967Z,2.59
2023-01-20T17:18:45.787Z,2.57
2023-01-20T17:21:13.507Z,2.54
2023-01-20T17:23:40.724Z,2.52
2023-01-20T17:26:08.600Z,2.51
2023-01-20T17:28:35.433Z,2.51
2023-01-20T17:31:03.010Z,2.50
2023-01-20T17:33:30.568Z,2.48
2023-01-20T17:35:58.774Z,2.46
2023-01-20T17:38:25.775Z,2.45
2023-01-20T17:40:52.720Z,2.43
2023-01-20T17:43:19.492Z,2.41
2023-01-20T17:45:46.270Z,2.41
2023-01-20T17:48:13.352Z,2.40
2023-01-20T17:50:40.428Z,2.37
2023-01-20T17:53:07.243Z,2.36
2023-01-20T17:55:34.098Z,2.34
2023-01-20T17:58:00.827Z,2.31
2023-01-20T18:00:27.602Z,2.28
2023-01-20T18:02:57.420Z,2.26
2023-01-20T18:05:24.204Z,2.24
2023-01-20T18:07:50.952Z,2.21
2023-01-20T18:10:18.037Z,2.19
2023-01-20T18:12:44.987Z,2.18
2023-01-20T18:15:11.827Z,2.16
2023-01-20T18:17:40.855Z,2.14
2023-01-20T18:20:09.832Z,2.12
2023-01-20T18:22:36.558Z,2.10
2023-01-20T18:25:03.656Z,2.09
2023-01-20T18:27:30.641Z,2.08
2023-01-20T18:29:57.387Z,2.08
2023-01-20T18:32:24.646Z,2.08
2023-01-20T18:34:51.380Z,2.06
2023-01-20T18:37:18.074Z,2.04
2023-01-20T18:39:44.866Z,2.02
2023-01-20T18:42:11.901Z,2.01
2023-01-20T18:44:38.611Z,1.99
2023-01-20T18:47:05.509Z,1.97
2023-01-20T18:49:32.251Z,1.95
2023-01-20T18:51:59.147Z,1.93
2023-01-20T18:54:26.448Z,1.91
2023-01-20T18:56:53.457Z,1.90
2023-01-20T18:59:20.705Z,1.89
2023-01-20T19:01:48.513Z,1.87
2023-01-20T19:04:15.587Z,1.86
2023-01-20T19:06:44.285Z,1.84
2023-01-20T19:09:11.283Z,1.82
2023-01-20T19:11:42.057Z,1.80
2023-01-20T19:14:11.786Z,1.77
2023-01-20T19:16:40.393Z,1.75
2023-01-20T19:19:07.126Z,1.74
2023-01-20T19:21:34.224Z,1.71
2023-01-20T19:24:05.991Z,1.70
2023-01-20T19:26:35.836Z,1.69
2023-01-20T19:29:05.788Z,1.67
2023-01-20T19:31:34.373Z,1.66
2023-01-20T19:34:01.388Z,1.65
2023-01-20T19:36:28.454Z,1.65
2023-01-20T19:38:55.286Z,1.63
2023-01-20T19:41:28.056Z,1.63
2023-01-20T19:43:57.398Z,1.60
2023-01-20T19:46:28.261Z,1.60
2023-01-20T19:48:56.808Z,1.59
2023-01-20T19:51:24.083Z,1.57
2023-01-20T19:53:55.732Z,1.56
2023-01-20T19:56:22.767Z,1.55
2023-01-20T19:58:51.771Z,1.54
2023-01-20T20:01:25.941Z,1.54
2023-01-20T20:03:54.284Z,1.54
2023-01-20T20:06:28.622Z,1.54
2023-01-20T20:09:10.009Z,1.53
2023-01-20T20:11:37.108Z,1.52
2023-01-20T20:14:05.371Z,1.52
2023-01-20T20:16:33.733Z,1.51
2023-01-20T20:19:00.753Z,1.51
2023-01-20T20:21:27.625Z,1.51
2023-01-20T20:23:58.845Z,1.50
2023-01-20T20:26:27.888Z,1.50
2023-01-20T20:28:54.748Z,1.49
2023-01-20T20:31:22.796Z,1.48
2023-01-20T20:33:49.909Z,1.49
2023-01-20T20:36:16.985Z,1.47
2023-01-20T20:38:45.124Z,1.46
2023-01-20T20:41:12.139Z,1.46
2023-01-20T20:43:39.174Z,1.45
2023-01-20T20:46:06.971Z,1.45
2023-01-20T20:48:35.324Z,1.44
2023-01-20T20:51:10.251Z,1.44
2023-01-20T20:53:37.008Z,1.43
2023-01-20T20:56:14.810Z,1.43
2023-01-20T20:58:59.487Z,1.42
2023-01-20T21:01:28.131Z,1.41
2023-01-20T21:03:57.632Z,1.40
2023-01-20T21:06:24.892Z,1.39
2023-01-20T21:08:52.147Z,1.39
2023-01-20T21:11:21.234Z,1.39
2023-01-20T21:13:51.180Z,1.39
2023-01-20T21:16:21.895Z,1.39
2023-01-20T21:18:49.702Z,1.39
2023-01-20T21:21:19.575Z,1.39
2023-01-20T21:23:50.743Z,1.39
2023-01-20T21:26:17.537Z,1.38
2023-01-20T21:28:44.541Z,1.37
2023-01-20T21:31:16.074Z,1.36
2023-01-20T21:33:43.423Z,1.36
2023-01-20T21:36:12.404Z,1.35
2023-01-20T21:38:41.702Z,1.34
2023-01-20T21:41:10.136Z,1.32
2023-01-20T21:44:00.448Z,1.30
2023-01-20T21:46:28.073Z,1.29
2023-01-20T21:49:13.729Z,1.29
2023-01-20T21:51:59.452Z,1.28
2023-01-20T21:54:30.337Z,1.27
2023-01-20T21:56:57.143Z,1.26
2023-01-20T21:59:23.924Z,1.24
2023-01-20T22:01:50.811Z,1.23
2023-01-20T22:04:17.787Z,1.21
2023-01-20T22:06:44.751Z,1.20
2023-01-20T22:09:11.846Z,1.19
2023-01-20T22:11:38.633Z,1.17
2023-01-20T22:14:05.460Z,1.15
2023-01-20T22:16:32.440Z,1.14
2023-01-20T22:18:59.348Z,1.13
2023-01-20T22:21:26.871Z,1.11
2023-01-20T22:23:54.354Z,1.10
2023-01-20T22:26:21.264Z,1.08
2023-01-20T22:28:48.142Z,1.05
2023-01-20T22:31:19.811Z,1.05
2023-01-20T22:33:51.760Z,1.05
2023-01-20T22:36:19.672Z,1.05
2023-01-20T22:38:46.461Z,1.03
2023-01-20T22:41:14.394Z,1.03
2023-01-20T22:43:44.310Z,1.03
2023-01-20T22:46:13.476Z,1.02
2023-01-20T22:48:40.681Z,1.00
2023-01-20T22:51:14.813Z,1.00
2023-01-20T22:53:41.854Z,0.99
2023-01-20T22:56:12.253Z,0.99
2023-01-20T22:58:39.516Z,0.98
2023-01-20T23:01:14.835Z,0.97
2023-01-20T23:03:42.055Z,0.95
2023-01-20T23:06:09.055Z,0.93
2023-01-20T23:08:35.911Z,0.91
2023-01-20T23:11:05.615Z,0.90
2023-01-20T23:13:32.606Z,0.90
2023-01-20T23:15:59.291Z,0.89
2023-01-20T23:18:26.240Z,0.88
2023-01-20T23:20:53.846Z,0.87
2023-01-20T23:23:21.613Z,0.85
2023-01-20T23:25:48.517Z,0.84
2023-01-20T23:28:15.460Z,0.83
2023-01-20T23:30:42.441Z,0.81
2023-01-20T23:33:09.861Z,0.80
2023-01-20T23:35:39.151Z,0.79
2023-01-20T23:38:06.954Z,0.77
2023-01-20T23:40:34.909Z,0.75
2023-01-20T23:43:01.798Z,0.74
2023-01-20T23:45:28.922Z,0.73
2023-01-20T23:47:55.862Z,0.72
2023-01-20T23:50:22.837Z,0.71
2023-01-20T23:52:49.788Z,0.71
2023-01-20T23:55:16.707Z,0.70
2023-01-20T23:57:43.434Z,0.69
